createdAt,value
2023-03-17T00:01:45.042Z,99233.63
2023-03-17T00:04:13.599Z,99236.73
2023-03-17T00:06:41.797Z,99237.71
2023-03-17T00:09:15.037Z,99238.98
2023-03-17T00:11:43.753Z,99245.14
2023-03-17T00:14:11.091Z,99243.87
2023-03-17T00:16:41.667Z,99246.08
2023-03-17T00:19:18.565Z,99243.64
2023-03-17T00:21:49.394Z,99248.98
2023-03-17T00:24:16.554Z,99254.16
2023-03-17T00:26:43.970Z,99257.80
2023-03-17T00:29:11.039Z,99258.73
2023-03-17T00:31:39.758Z,99263.03
2023-03-17T00:34:08.246Z,99262.03
2023-03-17T00:36:36.236Z,99268.16
2023-03-17T00:39:04.311Z,99270.05
2023-03-17T00:41:31.148Z,99266.55
2023-03-17T00:43:58.915Z,99262.39
2023-03-17T00:46:29.483Z,99262.96
2023-03-17T00:49:26.518Z,99260.59
2023-03-17T00:51:58.443Z,99262.49
2023-03-17T00:54:33.320Z,99261.36
2023-03-17T00:57:07.796Z,99252.99
2023-03-17T00:59:46.005Z,99251.67
2023-03-17T01:02:14.097Z,99251.38
2023-03-17T01:04:45.525Z,99248.00
2023-03-17T01:07:14.395Z,99240.94
2023-03-17T01:09:41.648Z,99241.98
2023-03-17T01:12:12.946Z,99235.11
2023-03-17T01:14:41.221Z,99232.34
2023-03-17T01:17:17.274Z,99229.75
2023-03-17T01:19:45.742Z,99230.45
2023-03-17T01:22:13.903Z,99231.67
2023-03-17T01:24:41.533Z,99232.17
2023-03-17T01:27:08.686Z,99228.52
2023-03-17T01:29:35.867Z,99222.48
2023-03-17T01:32:02.993Z,99222.18
2023-03-17T01:34:29.815Z,99223.95
2023-03-17T01:36:56.985Z,99229.27
2023-03-17T01:39:23.804Z,99236.41
2023-03-17T01:41:50.984Z,99234.71
2023-03-17T01:44:19.956Z,99232.77
2023-03-17T01:46:47.786Z,99240.10
2023-03-17T01:49:25.436Z,99228.73
2023-03-17T01:52:14.432Z,99222.25
2023-03-17T01:55:10.865Z,99225.92
2023-03-17T01:57:51.715Z,99226.92
2023-03-17T02:00:23.557Z,99227.42
2023-03-17T02:02:54.221Z,99222.95
2023-03-17T02:05:24.573Z,99217.77
2023-03-17T02:07:52.754Z,99216.14
2023-03-17T02:10:22.185Z,99219.29
2023-03-17T02:12:54.025Z,99216.16
2023-03-17T02:15:22.943Z,99208.66
2023-03-17T02:17:50.244Z,99202.48
2023-03-17T02:20:17.510Z,99185.55
2023-03-17T02:22:47.836Z,99181.14
2023-03-17T02:25:15.072Z,99181.96
2023-03-17T02:27:46.599Z,99178.50
2023-03-17T02:30:16.594Z,99178.49
2023-03-17T02:32:43.801Z,99169.54
2023-03-17T02:35:11.434Z,99164.66
2023-03-17T02:37:38.919Z,99167.27
2023-03-17T02:40:07.950Z,99166.52
2023-03-17T02:42:35.921Z,99159.49
2023-03-17T02:45:03.182Z,99157.98
2023-03-17T02:47:30.273Z,99152.58
2023-03-17T02:49:57.452Z,99138.91
2023-03-17T02:52:25.562Z,99138.24
2023-03-17T02:54:52.414Z,99132.77
2023-03-17T02:57:19.673Z,99147.27
2023-03-17T02:59:47.039Z,99156.11
2023-03-17T03:02:14.841Z,99161.42
2023-03-17T03:04:42.357Z,99164.95
2023-03-17T03:07:10.314Z,99170.73
2023-03-17T03:09:37.699Z,99172.41
2023-03-17T03:12:06.817Z,99172.97
2023-03-17T03:14:33.934Z,99172.02
2023-03-17T03:17:00.857Z,99165.81
2023-03-17T03:19:28.019Z,99167.02
2023-03-17T03:21:54.946Z,99173.11
2023-03-17T03:24:21.776Z,99172.41
2023-03-17T03:26:48.616Z,99174.02
2023-03-17T03:29:15.577Z,99174.48
2023-03-17T03:31:43.138Z,99169.79
2023-03-17T03:34:10.041Z,99177.79
2023-03-17T03:36:37.346Z,99178.95
2023-03-17T03:39:04.496Z,99177.38
2023-03-17T03:41:32.021Z,99180.21
2023-03-17T03:43:58.846Z,99180.34
2023-03-17T03:46:26.972Z,99182.48
2023-03-17T03:48:55.289Z,99184.36
2023-03-17T03:51:22.174Z,99174.02
2023-03-17T03:53:49.177Z,99166.77
2023-03-17T03:56:16.220Z,99169.83
2023-03-17T03:58:43.172Z,99178.46
2023-03-17T04:01:10.505Z,99179.36
2023-03-17T04:03:38.538Z,99178.40
2023-03-17T04:06:06.490Z,99173.29
2023-03-17T04:08:33.944Z,99175.64
2023-03-17T04:11:01.299Z,99172.78
2023-03-17T04:13:28.647Z,99167.08
2023-03-17T04:15:55.609Z,99163.08
2023-03-17T04:18:22.610Z,99166.70
2023-03-17T04:20:49.568Z,99165.42
2023-03-17T04:23:16.488Z,99163.06
2023-03-17T04:25:43.425Z,99160.94
2023-03-17T04:28:11.335Z,99168.60
2023-03-17T04:30:38.652Z,99165.23
2023-03-17T04:33:05.458Z,99168.23
2023-03-17T04:35:32.491Z,99161.93
2023-03-17T04:37:59.370Z,99161.10
2023-03-17T04:40:26.946Z,99156.40
2023-03-17T04:42:53.800Z,99158.38
2023-03-17T04:45:21.255Z,99165.71
2023-03-17T04:47:48.179Z,99165.95
2023-03-17T04:50:15.217Z,99169.48
2023-03-17T04:52:42.495Z,99172.14
2023-03-17T04:55:12.146Z,99178.89
2023-03-17T04:57:39.111Z,99171.89
2023-03-17T05:00:07.893Z,99173.44
2023-03-17T05:02:35.606Z,99174.88
2023-03-17T05:05:08.112Z,99174.52
2023-03-17T05:07:35.274Z,99174.90
2023-03-17T05:10:02.524Z,99172.80
2023-03-17T05:12:29.576Z,99171.38
2023-03-17T05:14:56.434Z,99168.96
2023-03-17T05:17:23.469Z,99169.39
2023-03-17T05:19:50.608Z,99166.50
2023-03-17T05:22:17.460Z,99169.27
2023-03-17T05:24:45.005Z,99166.89
2023-03-17T05:27:12.502Z,99170.52
2023-03-17T05:29:39.863Z,99171.85
2023-03-17T05:32:06.816Z,99174.77
2023-03-17T05:34:34.033Z,99173.75
2023-03-17T05:37:01.782Z,99174.60
2023-03-17T05:39:28.935Z,99177.58
2023-03-17T05:41:57.512Z,99173.19
2023-03-17T05:44:25.385Z,99171.30
2023-03-17T05:46:52.299Z,99175.45
2023-03-17T05:49:19.334Z,99176.13
2023-03-17T05:51:46.698Z,99175.42
2023-03-17T05:54:14.187Z,99182.95
2023-03-17T05:56:41.944Z,99180.37
2023-03-17T05:59:10.664Z,99186.90
2023-03-17T06:01:37.646Z,99191.77
2023-03-17T06:04:05.076Z,99186.06
2023-03-17T06:06:32.589Z,99183.60
2023-03-17T06:09:00.175Z,99185.12
2023-03-17T06:11:27.778Z,99186.74
2023-03-17T06:13:54.993Z,99185.42
2023-03-17T06:16:22.810Z,99183.23
2023-03-17T06:18:50.110Z,99182.39
2023-03-17T06:21:17.557Z,99179.00
2023-03-17T06:23:44.586Z,99177.48
2023-03-17T06:26:11.582Z,99185.63
2023-03-17T06:28:38.587Z,99176.35
2023-03-17T06:31:07.342Z,99181.17
2023-03-17T06:33:35.547Z,99181.85
2023-03-17T06:36:03.615Z,99181.33
2023-03-17T06:38:30.667Z,99184.48
2023-03-17T06:40:58.479Z,99184.20
2023-03-17T06:43:25.545Z,99183.49
2023-03-17T06:45:53.081Z,99184.23
2023-03-17T06:48:20.311Z,99184.99
2023-03-17T06:50:50.529Z,99188.61
2023-03-17T06:53:17.793Z,99188.44
2023-03-17T06:55:45.876Z,99180.17
2023-03-17T06:58:13.547Z,99178.61
2023-03-17T07:00:41.228Z,99186.24
2023-03-17T07:03:08.315Z,99191.17
2023-03-17T07:05:35.291Z,99188.77
2023-03-17T07:08:02.269Z,99192.52
2023-03-17T07:10:29.468Z,99191.49
2023-03-17T07:12:57.067Z,99190.52
2023-03-17T07:15:24.363Z,99193.18
2023-03-17T07:17:51.561Z,99196.55
2023-03-17T07:20:19.545Z,99198.72
2023-03-17T07:22:46.935Z,99198.81
2023-03-17T07:25:24.528Z,99200.59
2023-03-17T07:28:06.687Z,99205.04
2023-03-17T07:30:43.914Z,99201.04
2023-03-17T07:33:11.898Z,99206.67
2023-03-17T07:35:38.945Z,99212.14
2023-03-17T07:38:06.385Z,99212.19
2023-03-17T07:40:35.237Z,99209.45
2023-03-17T07:43:02.935Z,99207.47
2023-03-17T07:45:30.090Z,99207.52
2023-03-17T07:47:57.832Z,99203.48
2023-03-17T07:50:25.319Z,99206.80
2023-03-17T07:52:52.296Z,99207.23
2023-03-17T07:55:19.336Z,99202.10
2023-03-17T07:57:46.869Z,99201.20
2023-03-17T08:00:14.802Z,99204.77
2023-03-17T08:02:41.924Z,99205.42
2023-03-17T08:05:10.547Z,99201.13
2023-03-17T08:07:41.101Z,99201.77
2023-03-17T08:10:11.984Z,99197.71
2023-03-17T08:12:39.894Z,99197.39
2023-03-17T08:15:08.260Z,99196.23
2023-03-17T08:17:36.826Z,99187.96
2023-03-17T08:20:05.340Z,99184.98
2023-03-17T08:22:32.650Z,99181.15
2023-03-17T08:24:59.496Z,99177.13
2023-03-17T08:27:27.015Z,99173.84
2023-03-17T08:29:54.093Z,99171.27
2023-03-17T08:32:21.025Z,99165.23
2023-03-17T08:34:48.792Z,99163.14
2023-03-17T08:37:15.734Z,99159.97
2023-03-17T08:39:42.881Z,99154.41
2023-03-17T08:42:10.062Z,99153.27
2023-03-17T08:44:37.743Z,99154.81
2023-03-17T08:47:05.036Z,99152.77
2023-03-17T08:49:35.120Z,99150.09
2023-03-17T08:52:03.745Z,99148.67
2023-03-17T08:54:30.871Z,99144.14
2023-03-17T08:56:58.723Z,99146.32
2023-03-17T08:59:25.700Z,99149.05
2023-03-17T09:01:52.743Z,99146.67
2023-03-17T09:04:21.010Z,99142.35
2023-03-17T09:07:02.316Z,99137.36
2023-03-17T09:09:31.521Z,99145.06
2023-03-17T09:11:58.413Z,99147.04
2023-03-17T09:14:25.834Z,99145.14
2023-03-17T09:16:53.240Z,99146.54
2023-03-17T09:19:21.419Z,99145.49
2023-03-17T09:21:49.109Z,99140.88
2023-03-17T09:24:16.684Z,99139.20
2023-03-17T09:26:44.199Z,99133.34
2023-03-17T09:29:11.193Z,99130.98
2023-03-17T09:31:38.913Z,99128.92
2023-03-17T09:34:06.798Z,99122.65
2023-03-17T09:36:34.061Z,99115.38
2023-03-17T09:39:01.744Z,99115.80
2023-03-17T09:41:57.358Z,99113.27
2023-03-17T09:44:50.755Z,99110.81
2023-03-17T09:47:36.420Z,99107.27
2023-03-17T09:50:11.016Z,99110.19
2023-03-17T09:52:39.318Z,99113.84
2023-03-17T09:55:12.632Z,99108.48
2023-03-17T09:57:41.158Z,99105.91
2023-03-17T10:00:23.352Z,99101.96
2023-03-17T10:02:50.697Z,99107.36
2023-03-17T10:05:17.696Z,99107.33
2023-03-17T10:08:26.851Z,99101.76
2023-03-17T10:11:35.433Z,99092.89
2023-03-17T10:14:18.250Z,99094.37
2023-03-17T10:16:57.334Z,99089.79
2023-03-17T10:19:39.847Z,99087.45
2023-03-17T10:23:04.111Z,99087.35
2023-03-17T10:25:44.566Z,99080.23
2023-03-17T10:28:36.257Z,99081.52
2023-03-17T10:31:30.056Z,99087.67
2023-03-17T10:34:38.551Z,99083.84
2023-03-17T10:37:46.302Z,99091.96
2023-03-17T10:40:29.869Z,99089.52
2023-03-17T10:43:12.723Z,99090.86
2023-03-17T10:45:46.957Z,99091.25
2023-03-17T10:48:22.874Z,99080.50
2023-03-17T10:51:00.680Z,99071.57
2023-03-17T10:53:45.771Z,99066.54
2023-03-17T10:56:28.238Z,99057.89
2023-03-17T10:59:26.633Z,99039.40
2023-03-17T11:01:58.277Z,99022.56
2023-03-17T11:04:38.293Z,99020.05
2023-03-17T11:07:17.082Z,99023.63
2023-03-17T11:09:49.873Z,99032.95
2023-03-17T11:12:39.816Z,99040.30
2023-03-17T11:15:14.377Z,99035.55
2023-03-17T11:17:59.298Z,99024.16
2023-03-17T11:21:01.796Z,99027.86
2023-03-17T11:24:02.196Z,99027.73
2023-03-17T11:26:32.276Z,99028.36
2023-03-17T11:29:31.168Z,99025.14
2023-03-17T11:32:34.138Z,99021.23
2023-03-17T11:35:38.550Z,99031.31
2023-03-17T11:38:42.213Z,99028.36
2023-03-17T11:41:31.895Z,99025.14
2023-03-17T11:44:19.176Z,99025.41
2023-03-17T11:46:52.882Z,99016.89
2023-03-17T11:49:25.365Z,99016.15
2023-03-17T11:52:34.466Z,99016.52
2023-03-17T11:55:42.383Z,99014.36
2023-03-17T11:58:19.790Z,99012.81
2023-03-17T12:01:00.714Z,99006.25
2023-03-17T12:03:46.778Z,99004.60
2023-03-17T12:06:20.809Z,99000.52
2023-03-17T12:08:52.963Z,98997.52
2023-03-17T12:11:28.334Z,98998.56
2023-03-17T12:14:12.132Z,99001.05
2023-03-17T12:16:44.221Z,98998.73
2023-03-17T12:19:53.002Z,99000.23
2023-03-17T12:22:31.292Z,98995.40
2023-03-17T12:25:18.299Z,98986.17
2023-03-17T12:28:00.821Z,98988.06
2023-03-17T12:30:45.901Z,98987.87
2023-03-17T12:33:39.440Z,98986.64
2023-03-17T12:36:08.331Z,98979.67
2023-03-17T12:38:43.809Z,98976.75
2023-03-17T12:41:18.768Z,98968.95
2023-03-17T12:44:04.210Z,98969.64
2023-03-17T12:46:50.578Z,98961.49
2023-03-17T12:49:44.149Z,98962.09
2023-03-17T12:52:32.092Z,98963.85
2023-03-17T12:55:25.418Z,98960.30
2023-03-17T12:58:31.222Z,98951.25
2023-03-17T13:01:17.863Z,98946.42
2023-03-17T13:04:13.704Z,98935.77
2023-03-17T13:06:58.144Z,98936.27
2023-03-17T13:09:38.833Z,98939.66
2023-03-17T13:12:07.073Z,98941.77
2023-03-17T13:14:48.352Z,98936.96
2023-03-17T13:17:19.115Z,98931.00
2023-03-17T13:20:14.860Z,98928.59
2023-03-17T13:23:13.882Z,98920.65
2023-03-17T13:25:45.872Z,98919.52
2023-03-17T13:28:13.276Z,98921.08
2023-03-17T13:31:52.527Z,98919.92
2023-03-17T13:34:21.452Z,98918.40
2023-03-17T13:36:54.362Z,98918.90
2023-03-17T13:39:42.715Z,98913.12
2023-03-17T13:42:39.206Z,98907.41
2023-03-17T13:45:24.638Z,98902.92
2023-03-17T13:47:52.974Z,98895.10
2023-03-17T13:50:33.055Z,98893.29
2023-03-17T13:53:08.475Z,98881.02
2023-03-17T13:55:39.407Z,98875.60
2023-03-17T13:58:11.577Z,98879.48
2023-03-17T14:00:42.567Z,98878.20
2023-03-17T14:03:20.212Z,98871.87
2023-03-17T14:05:49.602Z,98865.20
2023-03-17T14:08:23.005Z,98859.52
2023-03-17T14:10:58.285Z,98858.56
2023-03-17T14:13:28.369Z,98856.15
2023-03-17T14:16:03.932Z,98858.52
2023-03-17T14:18:36.335Z,98855.73
2023-03-17T14:21:10.505Z,98845.39
2023-03-17T14:23:39.198Z,98841.11
2023-03-17T14:26:12.313Z,98835.83
2023-03-17T14:28:39.439Z,98835.11
2023-03-17T14:31:08.427Z,98834.88
2023-03-17T14:33:41.383Z,98834.83
2023-03-17T14:36:14.329Z,98835.49
2023-03-17T14:38:48.899Z,98830.42
2023-03-17T14:41:27.605Z,98829.16
2023-03-17T14:43:59.643Z,98826.04
2023-03-17T14:46:28.186Z,98821.72
2023-03-17T14:49:17.998Z,98819.39
2023-03-17T14:51:49.342Z,98817.84
2023-03-17T14:54:28.697Z,98815.81
2023-03-17T14:57:02.398Z,98810.79
2023-03-17T14:59:35.495Z,98805.41
2023-03-17T15:02:28.799Z,98798.66
2023-03-17T15:05:24.891Z,98791.08
2023-03-17T15:07:52.127Z,98790.84
2023-03-17T15:10:24.840Z,98788.15
2023-03-17T15:13:05.250Z,98786.29
2023-03-17T15:15:50.751Z,98789.48
2023-03-17T15:18:31.712Z,98786.93
2023-03-17T15:21:11.755Z,98785.48
2023-03-17T15:23:41.998Z,98784.80
2023-03-17T15:26:22.921Z,98780.65
2023-03-17T15:28:49.897Z,98783.90
2023-03-17T15:31:16.971Z,98783.08
2023-03-17T15:33:44.998Z,98785.27
2023-03-17T15:36:31.838Z,98785.00
2023-03-17T15:38:59.886Z,98785.23
2023-03-17T15:41:26.901Z,98793.92
2023-03-17T15:43:53.984Z,98794.73
2023-03-17T15:46:27.805Z,98789.93
2023-03-17T15:48:55.646Z,98788.11
2023-03-17T15:51:23.241Z,98789.21
2023-03-17T15:53:50.502Z,98789.10
2023-03-17T15:56:21.182Z,98791.31
2023-03-17T15:58:49.558Z,98790.55
2023-03-17T16:01:17.508Z,98788.09
2023-03-17T16:03:48.222Z,98783.10
2023-03-17T16:06:18.525Z,98784.78
2023-03-17T16:08:46.749Z,98783.16
2023-03-17T16:11:31.430Z,98781.29
2023-03-17T16:14:00.427Z,98781.08
2023-03-17T16:16:34.170Z,98778.63
2023-03-17T16:19:17.768Z,98779.02
2023-03-17T16:21:51.483Z,98781.08
2023-03-17T16:24:27.614Z,98773.98
2023-03-17T16:26:54.803Z,98771.80
2023-03-17T16:29:21.904Z,98770.77
2023-03-17T16:31:51.247Z,98763.52
2023-03-17T16:34:22.653Z,98770.27
2023-03-17T16:36:50.915Z,98768.20
2023-03-17T16:39:21.618Z,98768.70
2023-03-17T16:41:50.277Z,98775.11
2023-03-17T16:44:20.248Z,98780.23
2023-03-17T16:46:48.312Z,98783.73
2023-03-17T16:49:18.241Z,98780.58
2023-03-17T16:51:45.865Z,98780.06
2023-03-17T16:54:13.297Z,98783.60
2023-03-17T16:56:42.688Z,98780.75
2023-03-17T16:59:32.008Z,98780.06
2023-03-17T17:01:59.174Z,98777.42
2023-03-17T17:04:26.510Z,98777.55
2023-03-17T17:06:53.690Z,98780.73
2023-03-17T17:09:20.591Z,98787.67
2023-03-17T17:11:47.538Z,98793.14
2023-03-17T17:14:14.694Z,98794.17
2023-03-17T17:16:41.737Z,98793.66
2023-03-17T17:19:18.005Z,98798.41
2023-03-17T17:21:45.363Z,98799.48
2023-03-17T17:24:13.869Z,98796.73
2023-03-17T17:26:41.178Z,98797.95
2023-03-17T17:29:08.127Z,98801.55
2023-03-17T17:31:35.236Z,98800.75
2023-03-17T17:34:10.222Z,98799.25
2023-03-17T17:36:51.580Z,98799.86
2023-03-17T17:39:35.879Z,98799.56
2023-03-17T17:42:04.832Z,98800.52
2023-03-17T17:44:38.729Z,98803.20
2023-03-17T17:47:26.303Z,98803.23
2023-03-17T17:50:08.955Z,98801.98
2023-03-17T17:52:35.909Z,98805.64
2023-03-17T17:55:03.031Z,98805.23
2023-03-17T17:57:30.153Z,98804.95
2023-03-17T17:59:58.018Z,98807.94
2023-03-17T18:02:25.027Z,98806.36
2023-03-17T18:04:53.077Z,98807.29
2023-03-17T18:07:20.113Z,98807.44
2023-03-17T18:09:47.199Z,98810.16
2023-03-17T18:12:14.865Z,98806.28
2023-03-17T18:14:42.088Z,98805.68
2023-03-17T18:17:09.317Z,98806.75
2023-03-17T18:19:36.300Z,98810.93
2023-03-17T18:22:04.128Z,98807.32
2023-03-17T18:24:31.671Z,98806.83
2023-03-17T18:26:59.036Z,98803.87
2023-03-17T18:29:26.184Z,98803.58
2023-03-17T18:31:55.244Z,98807.29
2023-03-17T18:34:25.711Z,98810.61
2023-03-17T18:36:53.828Z,98812.27
2023-03-17T18:39:20.919Z,98812.88
2023-03-17T18:41:48.898Z,98804.65
2023-03-17T18:44:16.748Z,98801.21
2023-03-17T18:46:44.627Z,98805.84
2023-03-17T18:49:11.925Z,98805.81
2023-03-17T18:51:39.428Z,98803.08
2023-03-17T18:54:07.075Z,98801.21
2023-03-17T18:56:34.476Z,98797.88
2023-03-17T18:59:01.585Z,98796.28
2023-03-17T19:01:28.700Z,98791.30
2023-03-17T19:03:55.975Z,98785.69
2023-03-17T19:06:23.822Z,98783.11
2023-03-17T19:08:51.295Z,98784.80
2023-03-17T19:11:21.910Z,98776.92
2023-03-17T19:13:51.285Z,98779.27
2023-03-17T19:16:19.262Z,98779.56
2023-03-17T19:18:46.565Z,98781.54
2023-03-17T19:21:13.790Z,98780.17
2023-03-17T19:23:41.854Z,98775.70
2023-03-17T19:26:09.321Z,98775.31
2023-03-17T19:28:36.261Z,98774.48
2023-03-17T19:31:04.141Z,98771.96
2023-03-17T19:33:32.829Z,98768.26
2023-03-17T19:36:05.825Z,98770.84
2023-03-17T19:38:33.355Z,98770.02
2023-03-17T19:41:00.955Z,98768.70
2023-03-17T19:43:39.960Z,98772.96
2023-03-17T19:46:10.210Z,98769.54
2023-03-17T19:48:37.742Z,98771.49
2023-03-17T19:51:05.314Z,98765.78
2023-03-17T19:53:32.648Z,98766.27
2023-03-17T19:56:01.376Z,98762.60
2023-03-17T19:58:28.722Z,98762.17
2023-03-17T20:00:55.764Z,98758.17
2023-03-17T20:03:25.594Z,98761.33
2023-03-17T20:05:53.686Z,98761.66
2023-03-17T20:08:22.674Z,98757.10
2023-03-17T20:10:54.095Z,98755.27
2023-03-17T20:13:22.830Z,98754.45
2023-03-17T20:15:52.120Z,98753.25
2023-03-17T20:18:20.245Z,98751.17
2023-03-17T20:20:52.576Z,98750.19
2023-03-17T20:23:19.990Z,98753.20
2023-03-17T20:25:47.234Z,98749.29
2023-03-17T20:28:14.957Z,98745.96
2023-03-17T20:30:44.305Z,98745.41
2023-03-17T20:33:13.248Z,98745.34
2023-03-17T20:35:42.565Z,98740.98
2023-03-17T20:38:12.963Z,98739.65
2023-03-17T20:40:40.968Z,98741.23
2023-03-17T20:43:08.237Z,98737.33
2023-03-17T20:45:36.319Z,98740.04
2023-03-17T20:48:03.847Z,98745.41
2023-03-17T20:50:31.403Z,98742.19
2023-03-17T20:52:58.798Z,98740.60
2023-03-17T20:55:26.081Z,98737.98
2023-03-17T20:57:53.527Z,98734.55
2023-03-17T21:00:22.258Z,98734.43
2023-03-17T21:02:50.981Z,98737.60
2023-03-17T21:05:21.372Z,98739.26
2023-03-17T21:07:49.330Z,98739.13
2023-03-17T21:10:17.711Z,98737.73
2023-03-17T21:12:45.196Z,98738.36
2023-03-17T21:15:13.209Z,98737.20
2023-03-17T21:17:40.689Z,98737.69
2023-03-17T21:20:10.185Z,98739.17
2023-03-17T21:22:37.248Z,98744.71
2023-03-17T21:25:05.518Z,98747.22
2023-03-17T21:27:32.685Z,98745.20
2023-03-17T21:29:59.718Z,98747.21
2023-03-17T21:32:27.051Z,98751.29
2023-03-17T21:34:54.680Z,98750.37
2023-03-17T21:37:22.197Z,98749.30
2023-03-17T21:39:49.830Z,98745.66
2023-03-17T21:42:16.992Z,98745.19
2023-03-17T21:44:46.158Z,98747.92
2023-03-17T21:47:13.235Z,98748.45
2023-03-17T21:49:40.598Z,98749.06
2023-03-17T21:52:08.462Z,98746.38
2023-03-17T21:54:35.578Z,98748.02
2023-03-17T21:57:04.128Z,98752.85
2023-03-17T21:59:34.703Z,98751.61
2023-03-17T22:02:02.465Z,98753.54
2023-03-17T22:04:30.756Z,98756.97
2023-03-17T22:06:59.154Z,98756.16
2023-03-17T22:09:27.170Z,98751.27
2023-03-17T22:11:54.493Z,98748.26
2023-03-17T22:14:22.438Z,98743.33
2023-03-17T22:16:49.884Z,98745.46
2023-03-17T22:19:20.623Z,98748.11
2023-03-17T22:21:48.847Z,98746.70
2023-03-17T22:24:17.131Z,98747.35
2023-03-17T22:26:44.652Z,98748.21
2023-03-17T22:29:11.722Z,98749.73
2023-03-17T22:31:38.761Z,98748.83
2023-03-17T22:34:07.220Z,98749.77
2023-03-17T22:36:34.257Z,98755.04
2023-03-17T22:39:01.340Z,98748.06
2023-03-17T22:41:29.914Z,98747.85
2023-03-17T22:43:58.015Z,98747.05
2023-03-17T22:46:25.280Z,98742.83
2023-03-17T22:48:53.217Z,98739.06
2023-03-17T22:51:23.244Z,98739.21
2023-03-17T22:53:52.108Z,98742.17
2023-03-17T22:56:20.115Z,98738.47
2023-03-17T22:58:48.193Z,98741.55
2023-03-17T23:01:16.958Z,98743.96
2023-03-17T23:03:45.348Z,98740.27
2023-03-17T23:06:13.495Z,98735.09
2023-03-17T23:08:43.387Z,98735.16
2023-03-17T23:11:17.704Z,98736.42
2023-03-17T23:13:46.418Z,98744.08
2023-03-17T23:16:15.035Z,98742.22
2023-03-17T23:18:46.113Z,98739.41
2023-03-17T23:21:22.068Z,98741.04
2023-03-17T23:23:49.853Z,98734.52
2023-03-17T23:26:17.089Z,98736.11
2023-03-17T23:28:45.237Z,98734.70
2023-03-17T23:31:13.583Z,98729.30
2023-03-17T23:33:40.496Z,98727.98
2023-03-17T23:36:09.548Z,98730.95
2023-03-17T23:38:37.017Z,98733.45
2023-03-17T23:41:04.093Z,98729.43
2023-03-17T23:43:31.448Z,98730.84
2023-03-17T23:45:58.752Z,98727.28
2023-03-17T23:48:25.698Z,98729.33
2023-03-17T23:50:53.300Z,98733.03
2023-03-17T23:53:22.670Z,98735.95
2023-03-17T23:55:50.639Z,98738.30
2023-03-17T23:58:18.597Z,98742.20
